sensor_id;sensor_type;location;lat;lon;timestamp;P1;durP1;ratioP1;P2;durP2;ratioP2
5418;SDS011;2732;52.092;11.556;2022-07-09T00:00:04;3.23;;;2.40;;
5418;SDS011;2732;52.092;11.556;2022-07-09T00:05:06;2.63;;;2.43;;
5418;SDS011;2732;52.092;11.556;2022-07-09T00:10:07;8.03;;;2.63;;
5418;SDS011;2732;52.092;11.556;2022-07-09T00:15:08;5.77;;;2.37;;
5418;SDS011;2732;52.092;11.556;2022-07-09T00:20:09;9.63;;;3.00;;
5418;SDS011;2732;52.092;11.556;2022-07-09T00:25:10;4.50;;;2.37;;
5418;SDS011;2732;52.092;11.556;2022-07-09T00:30:11;6.00;;;2.70;;
5418;SDS011;2732;52.092;11.556;2022-07-09T00:35:12;2.90;;;2.37;;
5418;SDS011;2732;52.092;11.556;2022-07-09T00:40:12;4.00;;;2.50;;
5418;SDS011;2732;52.092;11.556;2022-07-09T00:45:13;7.43;;;2.57;;
5418;SDS011;2732;52.092;11.556;2022-07-09T00:50:14;5.23;;;2.13;;
5418;SDS011;2732;52.092;11.556;2022-07-09T00:55:15;8.10;;;3.07;;
5418;SDS011;2732;52.092;11.556;2022-07-09T01:00:16;6.50;;;2.40;;
5418;SDS011;2732;52.092;11.556;2022-07-09T01:05:18;4.87;;;2.63;;
5418;SDS011;2732;52.092;11.556;2022-07-09T01:10:19;3.77;;;2.43;;
5418;SDS011;2732;52.092;11.556;2022-07-09T01:15:20;4.80;;;2.63;;
5418;SDS011;2732;52.092;11.556;2022-07-09T01:25:35;4.90;;;2.97;;
5418;SDS011;2732;52.092;11.556;2022-07-09T01:30:39;7.37;;;3.43;;
5418;SDS011;2732;52.092;11.556;2022-07-09T01:35:41;6.10;;;2.73;;
5418;SDS011;2732;52.092;11.556;2022-07-09T01:40:42;4.87;;;2.80;;
5418;SDS011;2732;52.092;11.556;2022-07-09T01:45:42;6.53;;;3.00;;
5418;SDS011;2732;52.092;11.556;2022-07-09T01:50:43;3.63;;;2.70;;
5418;SDS011;2732;52.092;11.556;2022-07-09T01:55:44;8.93;;;2.90;;
5418;SDS011;2732;52.092;11.556;2022-07-09T02:00:44;6.47;;;2.97;;
5418;SDS011;2732;52.092;11.556;2022-07-09T02:05:45;4.50;;;3.00;;
5418;SDS011;2732;52.092;11.556;2022-07-09T02:10:46;3.97;;;3.57;;
5418;SDS011;2732;52.092;11.556;2022-07-09T02:15:46;5.90;;;3.53;;
5418;SDS011;2732;52.092;11.556;2022-07-09T02:20:47;7.67;;;3.80;;
5418;SDS011;2732;52.092;11.556;2022-07-09T02:25:47;12.07;;;3.53;;
5418;SDS011;2732;52.092;11.556;2022-07-09T02:30:49;10.87;;;3.57;;
5418;SDS011;2732;52.092;11.556;2022-07-09T02:35:50;4.40;;;3.10;;
5418;SDS011;2732;52.092;11.556;2022-07-09T02:40:50;4.27;;;3.33;;
5418;SDS011;2732;52.092;11.556;2022-07-09T02:45:51;14.17;;;3.10;;
5418;SDS011;2732;52.092;11.556;2022-07-09T02:50:55;5.17;;;2.60;;
5418;SDS011;2732;52.092;11.556;2022-07-09T02:55:55;7.43;;;3.23;;
5418;SDS011;2732;52.092;11.556;2022-07-09T03:00:56;5.70;;;3.23;;
5418;SDS011;2732;52.092;11.556;2022-07-09T03:05:56;10.43;;;2.53;;
5418;SDS011;2732;52.092;11.556;2022-07-09T03:10:57;8.40;;;3.63;;
5418;SDS011;2732;52.092;11.556;2022-07-09T03:15:58;15.10;;;4.07;;
5418;SDS011;2732;52.092;11.556;2022-07-09T03:20:59;15.00;;;3.53;;
5418;SDS011;2732;52.092;11.556;2022-07-09T03:26:00;9.20;;;3.57;;
5418;SDS011;2732;52.092;11.556;2022-07-09T03:31:00;7.37;;;3.60;;
5418;SDS011;2732;52.092;11.556;2022-07-09T03:36:01;13.33;;;3.43;;
5418;SDS011;2732;52.092;11.556;2022-07-09T03:41:02;13.40;;;3.77;;
5418;SDS011;2732;52.092;11.556;2022-07-09T03:46:03;10.77;;;3.50;;
5418;SDS011;2732;52.092;11.556;2022-07-09T03:51:04;16.80;;;3.47;;
5418;SDS011;2732;52.092;11.556;2022-07-09T03:56:05;9.60;;;4.27;;
5418;SDS011;2732;52.092;11.556;2022-07-09T04:01:06;8.13;;;3.77;;
5418;SDS011;2732;52.092;11.556;2022-07-09T04:06:07;17.60;;;3.80;;
5418;SDS011;2732;52.092;11.556;2022-07-09T04:11:07;16.80;;;4.90;;
5418;SDS011;2732;52.092;11.556;2022-07-09T04:16:08;18.03;;;4.17;;
5418;SDS011;2732;52.092;11.556;2022-07-09T04:21:09;19.93;;;4.10;;
5418;SDS011;2732;52.092;11.556;2022-07-09T04:26:10;9.73;;;4.03;;
5418;SDS011;2732;52.092;11.556;2022-07-09T04:31:11;17.13;;;3.97;;
5418;SDS011;2732;52.092;11.556;2022-07-09T04:36:11;12.17;;;5.03;;
5418;SDS011;2732;52.092;11.556;2022-07-09T04:41:12;20.43;;;4.20;;
5418;SDS011;2732;52.092;11.556;2022-07-09T04:46:13;20.13;;;3.90;;
5418;SDS011;2732;52.092;11.556;2022-07-09T04:51:16;11.03;;;3.30;;
5418;SDS011;2732;52.092;11.556;2022-07-09T04:56:16;9.00;;;3.87;;
5418;SDS011;2732;52.092;11.556;2022-07-09T05:01:18;11.60;;;4.10;;
5418;SDS011;2732;52.092;11.556;2022-07-09T05:06:20;5.90;;;3.90;;
5418;SDS011;2732;52.092;11.556;2022-07-09T05:11:21;14.47;;;4.00;;
5418;SDS011;2732;52.092;11.556;2022-07-09T05:16:21;7.17;;;3.60;;
5418;SDS011;2732;52.092;11.556;2022-07-09T05:21:22;22.83;;;4.77;;
5418;SDS011;2732;52.092;11.556;2022-07-09T05:26:22;11.87;;;3.60;;
5418;SDS011;2732;52.092;11.556;2022-07-09T05:31:23;17.57;;;4.60;;
5418;SDS011;2732;52.092;11.556;2022-07-09T05:36:24;15.53;;;4.23;;
5418;SDS011;2732;52.092;11.556;2022-07-09T05:41:24;8.20;;;2.83;;
5418;SDS011;2732;52.092;11.556;2022-07-09T05:46:25;14.90;;;3.90;;
5418;SDS011;2732;52.092;11.556;2022-07-09T05:51:26;12.40;;;4.40;;
5418;SDS011;2732;52.092;11.556;2022-07-09T05:56:27;13.07;;;4.90;;
5418;SDS011;2732;52.092;11.556;2022-07-09T06:01:27;15.17;;;4.53;;
5418;SDS011;2732;52.092;11.556;2022-07-09T06:06:28;11.23;;;3.33;;
5418;SDS011;2732;52.092;11.556;2022-07-09T06:11:29;11.53;;;4.00;;
5418;SDS011;2732;52.092;11.556;2022-07-09T06:16:29;11.50;;;4.00;;
5418;SDS011;2732;52.092;11.556;2022-07-09T06:21:30;8.60;;;4.17;;
5418;SDS011;2732;52.092;11.556;2022-07-09T06:26:31;10.23;;;3.40;;
5418;SDS011;2732;52.092;11.556;2022-07-09T06:31:33;12.10;;;2.73;;
5418;SDS011;2732;52.092;11.556;2022-07-09T06:36:34;8.60;;;2.70;;
5418;SDS011;2732;52.092;11.556;2022-07-09T06:41:35;4.87;;;2.47;;
5418;SDS011;2732;52.092;11.556;2022-07-09T06:46:36;13.97;;;3.40;;
5418;SDS011;2732;52.092;11.556;2022-07-09T06:51:38;6.40;;;2.37;;
5418;SDS011;2732;52.092;11.556;2022-07-09T06:56:38;7.87;;;3.30;;
5418;SDS011;2732;52.092;11.556;2022-07-09T07:01:39;8.90;;;4.20;;
5418;SDS011;2732;52.092;11.556;2022-07-09T07:06:40;10.20;;;5.10;;
5418;SDS011;2732;52.092;11.556;2022-07-09T07:11:41;13.40;;;6.60;;
5418;SDS011;2732;52.092;11.556;2022-07-09T07:16:42;10.43;;;6.87;;
5418;SDS011;2732;52.092;11.556;2022-07-09T07:21:43;15.40;;;6.10;;
5418;SDS011;2732;52.092;11.556;2022-07-09T07:26:44;16.70;;;7.03;;
5418;SDS011;2732;52.092;11.556;2022-07-09T07:31:45;10.83;;;6.43;;
5418;SDS011;2732;52.092;11.556;2022-07-09T07:36:46;8.83;;;5.20;;
5418;SDS011;2732;52.092;11.556;2022-07-09T07:41:46;11.20;;;4.90;;
5418;SDS011;2732;52.092;11.556;2022-07-09T07:46:47;11.40;;;5.67;;
5418;SDS011;2732;52.092;11.556;2022-07-09T07:51:48;9.73;;;4.60;;
5418;SDS011;2732;52.092;11.556;2022-07-09T07:56:49;12.10;;;5.00;;
5418;SDS011;2732;52.092;11.556;2022-07-09T08:01:52;8.67;;;3.93;;
5418;SDS011;2732;52.092;11.556;2022-07-09T08:06:53;5.13;;;3.93;;
5418;SDS011;2732;52.092;11.556;2022-07-09T08:11:53;6.93;;;3.30;;
5418;SDS011;2732;52.092;11.556;2022-07-09T08:16:54;6.30;;;3.70;;
5418;SDS011;2732;52.092;11.556;2022-07-09T08:21:54;3.23;;;2.93;;
5418;SDS011;2732;52.092;11.556;2022-07-09T08:26:56;6.67;;;3.07;;
5418;SDS011;2732;52.092;11.556;2022-07-09T08:31:58;8.03;;;3.13;;
5418;SDS011;2732;52.092;11.556;2022-07-09T08:36:59;7.10;;;3.07;;
5418;SDS011;2732;52.092;11.556;2022-07-09T08:42:00;4.20;;;2.57;;
5418;SDS011;2732;52.092;11.556;2022-07-09T08:47:01;3.27;;;2.70;;
5418;SDS011;2732;52.092;11.556;2022-07-09T08:52:01;4.10;;;2.63;;
5418;SDS011;2732;52.092;11.556;2022-07-09T08:57:04;6.87;;;2.10;;
5418;SDS011;2732;52.092;11.556;2022-07-09T09:02:06;3.77;;;2.17;;
5418;SDS011;2732;52.092;11.556;2022-07-09T09:07:13;2.17;;;1.93;;
5418;SDS011;2732;52.092;11.556;2022-07-09T09:12:27;4.33;;;1.80;;
5418;SDS011;2732;52.092;11.556;2022-07-09T09:17:28;2.10;;;1.63;;
5418;SDS011;2732;52.092;11.556;2022-07-09T09:22:29;4.03;;;2.13;;
5418;SDS011;2732;52.092;11.556;2022-07-09T09:27:30;2.30;;;1.43;;
5418;SDS011;2732;52.092;11.556;2022-07-09T09:32:31;2.70;;;1.83;;
5418;SDS011;2732;52.092;11.556;2022-07-09T09:37:31;2.03;;;1.50;;
5418;SDS011;2732;52.092;11.556;2022-07-09T09:42:32;2.93;;;1.40;;
5418;SDS011;2732;52.092;11.556;2022-07-09T09:47:35;3.83;;;1.03;;
5418;SDS011;2732;52.092;11.556;2022-07-09T09:52:37;2.00;;;1.00;;
5418;SDS011;2732;52.092;11.556;2022-07-09T09:57:38;2.20;;;1.53;;
5418;SDS011;2732;52.092;11.556;2022-07-09T10:02:42;6.30;;;1.60;;
5418;SDS011;2732;52.092;11.556;2022-07-09T10:07:45;3.10;;;1.20;;
5418;SDS011;2732;52.092;11.556;2022-07-09T10:12:46;2.73;;;0.80;;
5418;SDS011;2732;52.092;11.556;2022-07-09T10:17:47;1.10;;;1.00;;
5418;SDS011;2732;52.092;11.556;2022-07-09T10:22:48;1.20;;;1.10;;
5418;SDS011;2732;52.092;11.556;2022-07-09T10:27:49;6.17;;;1.60;;
5418;SDS011;2732;52.092;11.556;2022-07-09T10:33:06;4.30;;;1.10;;
5418;SDS011;2732;52.092;11.556;2022-07-09T10:38:12;1.97;;;1.10;;
5418;SDS011;2732;52.092;11.556;2022-07-09T10:43:14;1.53;;;1.07;;
5418;SDS011;2732;52.092;11.556;2022-07-09T10:48:15;2.50;;;1.10;;
5418;SDS011;2732;52.092;11.556;2022-07-09T10:53:16;2.63;;;1.27;;
5418;SDS011;2732;52.092;11.556;2022-07-09T10:58:20;9.00;;;1.30;;
5418;SDS011;2732;52.092;11.556;2022-07-09T11:03:27;1.27;;;1.03;;
5418;SDS011;2732;52.092;11.556;2022-07-09T11:08:29;1.20;;;0.73;;
5418;SDS011;2732;52.092;11.556;2022-07-09T11:13:32;2.63;;;1.20;;
5418;SDS011;2732;52.092;11.556;2022-07-09T11:18:32;0.90;;;0.90;;
5418;SDS011;2732;52.092;11.556;2022-07-09T11:23:33;1.63;;;1.20;;
5418;SDS011;2732;52.092;11.556;2022-07-09T11:28:34;3.83;;;1.20;;
5418;SDS011;2732;52.092;11.556;2022-07-09T11:33:34;1.37;;;1.03;;
5418;SDS011;2732;52.092;11.556;2022-07-09T11:38:56;2.00;;;0.83;;
5418;SDS011;2732;52.092;11.556;2022-07-09T11:43:57;1.40;;;0.80;;
5418;SDS011;2732;52.092;11.556;2022-07-09T11:48:58;2.17;;;0.87;;
5418;SDS011;2732;52.092;11.556;2022-07-09T11:53:59;4.10;;;0.90;;
5418;SDS011;2732;52.092;11.556;2022-07-09T11:59:01;0.70;;;0.70;;
5418;SDS011;2732;52.092;11.556;2022-07-09T12:04:02;1.00;;;0.70;;
5418;SDS011;2732;52.092;11.556;2022-07-09T12:09:03;0.83;;;0.70;;
5418;SDS011;2732;52.092;11.556;2022-07-09T12:14:04;1.17;;;0.80;;
5418;SDS011;2732;52.092;11.556;2022-07-09T12:19:05;2.63;;;0.93;;
5418;SDS011;2732;52.092;11.556;2022-07-09T12:24:05;0.73;;;0.73;;
5418;SDS011;2732;52.092;11.556;2022-07-09T12:29:06;1.73;;;0.70;;
5418;SDS011;2732;52.092;11.556;2022-07-09T12:34:07;1.17;;;1.07;;
5418;SDS011;2732;52.092;11.556;2022-07-09T12:39:07;2.80;;;0.87;;
5418;SDS011;2732;52.092;11.556;2022-07-09T12:44:08;0.70;;;0.70;;
5418;SDS011;2732;52.092;11.556;2022-07-09T12:49:08;1.80;;;0.70;;
5418;SDS011;2732;52.092;11.556;2022-07-09T12:54:09;2.00;;;0.70;;
5418;SDS011;2732;52.092;11.556;2022-07-09T12:59:10;0.90;;;0.73;;
5418;SDS011;2732;52.092;11.556;2022-07-09T13:04:10;1.07;;;0.80;;
5418;SDS011;2732;52.092;11.556;2022-07-09T13:09:11;0.80;;;0.80;;
5418;SDS011;2732;52.092;11.556;2022-07-09T13:14:12;1.07;;;0.43;;
5418;SDS011;2732;52.092;11.556;2022-07-09T13:19:12;2.40;;;0.70;;
5418;SDS011;2732;52.092;11.556;2022-07-09T13:24:13;0.80;;;0.73;;
5418;SDS011;2732;52.092;11.556;2022-07-09T13:29:14;1.13;;;0.63;;
5418;SDS011;2732;52.092;11.556;2022-07-09T13:40:30;1.47;;;0.50;;
5418;SDS011;2732;52.092;11.556;2022-07-09T13:45:31;1.03;;;0.40;;
5418;SDS011;2732;52.092;11.556;2022-07-09T13:50:32;1.23;;;0.70;;
5418;SDS011;2732;52.092;11.556;2022-07-09T13:55:32;1.30;;;0.70;;
5418;SDS011;2732;52.092;11.556;2022-07-09T14:00:33;2.27;;;0.90;;
5418;SDS011;2732;52.092;11.556;2022-07-09T14:05:35;4.97;;;1.00;;
5418;SDS011;2732;52.092;11.556;2022-07-09T14:10:37;5.10;;;1.20;;
5418;SDS011;2732;52.092;11.556;2022-07-09T14:15:37;0.87;;;0.70;;
5418;SDS011;2732;52.092;11.556;2022-07-09T14:20:38;3.43;;;1.27;;
5418;SDS011;2732;52.092;11.556;2022-07-09T14:25:39;2.93;;;1.80;;
5418;SDS011;2732;52.092;11.556;2022-07-09T14:30:40;1.00;;;0.90;;
5418;SDS011;2732;52.092;11.556;2022-07-09T14:35:40;1.43;;;1.30;;
5418;SDS011;2732;52.092;11.556;2022-07-09T14:40:41;1.27;;;1.17;;
5418;SDS011;2732;52.092;11.556;2022-07-09T14:45:42;2.83;;;1.40;;
5418;SDS011;2732;52.092;11.556;2022-07-09T14:50:43;1.77;;;1.10;;
5418;SDS011;2732;52.092;11.556;2022-07-09T14:55:43;2.70;;;1.13;;
5418;SDS011;2732;52.092;11.556;2022-07-09T15:00:44;3.43;;;1.00;;
5418;SDS011;2732;52.092;11.556;2022-07-09T15:05:45;0.90;;;0.80;;
5418;SDS011;2732;52.092;11.556;2022-07-09T15:10:46;2.30;;;0.97;;
5418;SDS011;2732;52.092;11.556;2022-07-09T15:22:02;0.83;;;0.83;;
5418;SDS011;2732;52.092;11.556;2022-07-09T15:27:03;0.60;;;0.60;;
5418;SDS011;2732;52.092;11.556;2022-07-09T15:32:04;0.90;;;0.80;;
5418;SDS011;2732;52.092;11.556;2022-07-09T15:37:04;1.37;;;0.70;;
5418;SDS011;2732;52.092;11.556;2022-07-09T15:42:06;0.90;;;0.70;;
5418;SDS011;2732;52.092;11.556;2022-07-09T15:47:08;1.07;;;0.80;;
5418;SDS011;2732;52.092;11.556;2022-07-09T15:52:09;0.80;;;0.80;;
5418;SDS011;2732;52.092;11.556;2022-07-09T15:57:10;0.73;;;0.63;;
5418;SDS011;2732;52.092;11.556;2022-07-09T16:02:11;1.47;;;0.50;;
5418;SDS011;2732;52.092;11.556;2022-07-09T16:07:11;2.37;;;0.67;;
5418;SDS011;2732;52.092;11.556;2022-07-09T16:12:12;4.40;;;0.83;;
5418;SDS011;2732;52.092;11.556;2022-07-09T16:17:32;0.50;;;0.50;;
5418;SDS011;2732;52.092;11.556;2022-07-09T16:22:32;0.50;;;0.47;;
5418;SDS011;2732;52.092;11.556;2022-07-09T16:27:35;4.60;;;0.60;;
5418;SDS011;2732;52.092;11.556;2022-07-09T16:32:37;0.70;;;0.60;;
5418;SDS011;2732;52.092;11.556;2022-07-09T16:37:38;0.70;;;0.70;;
5418;SDS011;2732;52.092;11.556;2022-07-09T16:42:39;1.67;;;0.70;;
5418;SDS011;2732;52.092;11.556;2022-07-09T16:47:40;2.40;;;0.80;;
5418;SDS011;2732;52.092;11.556;2022-07-09T16:52:41;0.80;;;0.60;;
5418;SDS011;2732;52.092;11.556;2022-07-09T17:03:57;1.63;;;0.57;;
5418;SDS011;2732;52.092;11.556;2022-07-09T17:08:58;1.00;;;0.77;;
5418;SDS011;2732;52.092;11.556;2022-07-09T17:14:11;2.50;;;0.57;;
5418;SDS011;2732;52.092;11.556;2022-07-09T17:19:12;2.00;;;0.87;;
5418;SDS011;2732;52.092;11.556;2022-07-09T17:24:12;0.83;;;0.70;;
5418;SDS011;2732;52.092;11.556;2022-07-09T17:29:13;2.60;;;0.80;;
5418;SDS011;2732;52.092;11.556;2022-07-09T17:34:14;1.50;;;0.70;;
5418;SDS011;2732;52.092;11.556;2022-07-09T17:39:15;0.70;;;0.67;;
5418;SDS011;2732;52.092;11.556;2022-07-09T17:44:15;0.80;;;0.80;;
5418;SDS011;2732;52.092;11.556;2022-07-09T17:49:16;3.20;;;1.00;;
5418;SDS011;2732;52.092;11.556;2022-07-09T17:54:16;0.90;;;0.90;;
5418;SDS011;2732;52.092;11.556;2022-07-09T17:59:17;2.93;;;0.73;;
5418;SDS011;2732;52.092;11.556;2022-07-09T18:04:18;3.43;;;0.70;;
5418;SDS011;2732;52.092;11.556;2022-07-09T18:09:19;2.43;;;0.80;;
5418;SDS011;2732;52.092;11.556;2022-07-09T18:14:20;1.17;;;0.90;;
5418;SDS011;2732;52.092;11.556;2022-07-09T18:19:20;1.83;;;0.80;;
5418;SDS011;2732;52.092;11.556;2022-07-09T18:24:21;2.70;;;1.20;;
5418;SDS011;2732;52.092;11.556;2022-07-09T18:29:22;2.50;;;1.00;;
5418;SDS011;2732;52.092;11.556;2022-07-09T18:34:24;3.60;;;1.20;;
5418;SDS011;2732;52.092;11.556;2022-07-09T18:39:24;4.03;;;0.70;;
5418;SDS011;2732;52.092;11.556;2022-07-09T18:44:25;4.50;;;1.13;;
5418;SDS011;2732;52.092;11.556;2022-07-09T18:49:26;0.73;;;0.60;;
5418;SDS011;2732;52.092;11.556;2022-07-09T18:54:26;4.17;;;1.20;;
5418;SDS011;2732;52.092;11.556;2022-07-09T18:59:27;2.57;;;1.00;;
5418;SDS011;2732;52.092;11.556;2022-07-09T19:04:28;2.90;;;0.83;;
5418;SDS011;2732;52.092;11.556;2022-07-09T19:09:28;1.47;;;0.93;;
5418;SDS011;2732;52.092;11.556;2022-07-09T19:14:30;1.10;;;0.80;;
5418;SDS011;2732;52.092;11.556;2022-07-09T19:19:31;6.50;;;0.90;;
5418;SDS011;2732;52.092;11.556;2022-07-09T19:24:31;7.23;;;1.20;;
5418;SDS011;2732;52.092;11.556;2022-07-09T19:29:32;4.30;;;1.03;;
5418;SDS011;2732;52.092;11.556;2022-07-09T19:34:33;9.53;;;1.40;;
5418;SDS011;2732;52.092;11.556;2022-07-09T19:39:34;2.70;;;0.80;;
5418;SDS011;2732;52.092;11.556;2022-07-09T19:44:34;5.23;;;0.97;;
5418;SDS011;2732;52.092;11.556;2022-07-09T19:49:35;2.43;;;0.60;;
5418;SDS011;2732;52.092;11.556;2022-07-09T19:54:36;2.93;;;1.00;;
5418;SDS011;2732;52.092;11.556;2022-07-09T19:59:37;0.77;;;0.50;;
5418;SDS011;2732;52.092;11.556;2022-07-09T20:04:37;3.23;;;0.70;;
5418;SDS011;2732;52.092;11.556;2022-07-09T20:09:39;2.57;;;0.90;;
5418;SDS011;2732;52.092;11.556;2022-07-09T20:14:40;2.03;;;1.10;;
5418;SDS011;2732;52.092;11.556;2022-07-09T20:19:43;3.33;;;0.80;;
5418;SDS011;2732;52.092;11.556;2022-07-09T20:24:45;4.10;;;0.60;;
5418;SDS011;2732;52.092;11.556;2022-07-09T20:29:46;3.70;;;0.87;;
5418;SDS011;2732;52.092;11.556;2022-07-09T20:34:46;1.33;;;0.60;;
5418;SDS011;2732;52.092;11.556;2022-07-09T20:39:47;3.73;;;0.90;;
5418;SDS011;2732;52.092;11.556;2022-07-09T20:44:47;3.70;;;0.90;;
5418;SDS011;2732;52.092;11.556;2022-07-09T20:49:48;7.03;;;0.70;;
5418;SDS011;2732;52.092;11.556;2022-07-09T20:54:49;1.90;;;0.80;;
5418;SDS011;2732;52.092;11.556;2022-07-09T20:59:51;2.63;;;0.60;;
5418;SDS011;2732;52.092;11.556;2022-07-09T21:04:52;2.30;;;0.73;;
5418;SDS011;2732;52.092;11.556;2022-07-09T21:09:52;6.20;;;1.43;;
5418;SDS011;2732;52.092;11.556;2022-07-09T21:14:53;3.47;;;0.77;;
5418;SDS011;2732;52.092;11.556;2022-07-09T21:19:53;5.07;;;0.80;;
5418;SDS011;2732;52.092;11.556;2022-07-09T21:24:54;1.77;;;0.87;;
5418;SDS011;2732;52.092;11.556;2022-07-09T21:29:55;3.80;;;0.60;;
5418;SDS011;2732;52.092;11.556;2022-07-09T21:34:55;3.77;;;0.80;;
5418;SDS011;2732;52.092;11.556;2022-07-09T21:40:02;3.40;;;0.90;;
5418;SDS011;2732;52.092;11.556;2022-07-09T21:45:03;1.73;;;0.50;;
5418;SDS011;2732;52.092;11.556;2022-07-09T21:50:05;4.03;;;0.80;;
5418;SDS011;2732;52.092;11.556;2022-07-09T21:55:06;1.30;;;0.60;;
5418;SDS011;2732;52.092;11.556;2022-07-09T22:00:09;1.47;;;0.83;;
5418;SDS011;2732;52.092;11.556;2022-07-09T22:05:33;5.60;;;0.77;;
5418;SDS011;2732;52.092;11.556;2022-07-09T22:10:33;3.90;;;0.90;;
5418;SDS011;2732;52.092;11.556;2022-07-09T22:15:34;2.70;;;1.20;;
5418;SDS011;2732;52.092;11.556;2022-07-09T22:20:35;2.77;;;0.90;;
5418;SDS011;2732;52.092;11.556;2022-07-09T22:25:35;1.40;;;0.90;;
5418;SDS011;2732;52.092;11.556;2022-07-09T22:30:36;2.57;;;0.70;;
5418;SDS011;2732;52.092;11.556;2022-07-09T22:35:37;2.37;;;0.87;;
5418;SDS011;2732;52.092;11.556;2022-07-09T22:40:37;5.20;;;0.80;;
5418;SDS011;2732;52.092;11.556;2022-07-09T22:45:38;6.57;;;0.97;;
5418;SDS011;2732;52.092;11.556;2022-07-09T22:50:39;2.50;;;0.77;;
5418;SDS011;2732;52.092;11.556;2022-07-09T22:55:39;8.63;;;0.90;;
5418;SDS011;2732;52.092;11.556;2022-07-09T23:00:40;3.53;;;0.80;;
5418;SDS011;2732;52.092;11.556;2022-07-09T23:05:41;7.60;;;1.20;;
5418;SDS011;2732;52.092;11.556;2022-07-09T23:10:41;7.40;;;1.07;;
5418;SDS011;2732;52.092;11.556;2022-07-09T23:15:42;2.60;;;0.70;;
5418;SDS011;2732;52.092;11.556;2022-07-09T23:20:43;3.63;;;0.80;;
5418;SDS011;2732;52.092;11.556;2022-07-09T23:25:43;4.40;;;1.10;;
5418;SDS011;2732;52.092;11.556;2022-07-09T23:30:44;3.93;;;1.20;;
5418;SDS011;2732;52.092;11.556;2022-07-09T23:35:45;9.60;;;1.03;;
5418;SDS011;2732;52.092;11.556;2022-07-09T23:40:45;4.73;;;0.70;;
5418;SDS011;2732;52.092;11.556;2022-07-09T23:45:46;4.97;;;1.00;;
5418;SDS011;2732;52.092;11.556;2022-07-09T23:50:46;5.77;;;0.70;;
5418;SDS011;2732;52.092;11.556;2022-07-09T23:55:47;3.70;;;0.77;;
